sensor_id;sensor_type;location;lat;lon;timestamp;P1;durP1;ratioP1;P2;durP2;ratioP2
64917;SDS011;52176;44.858;38.372;2023-02-11T00:01:27;51.03;;;21.13;;
64917;SDS011;52176;44.858;38.372;2023-02-11T00:03:55;48.08;;;22.08;;
64917;SDS011;52176;44.858;38.372;2023-02-11T00:06:22;43.80;;;18.98;;
64917;SDS011;52176;44.858;38.372;2023-02-11T00:08:49;45.17;;;19.95;;
64917;SDS011;52176;44.858;38.372;2023-02-11T00:11:16;45.25;;;21.45;;
64917;SDS011;52176;44.858;38.372;2023-02-11T00:13:44;54.03;;;22.85;;
64917;SDS011;52176;44.858;38.372;2023-02-11T00:16:12;49.03;;;20.90;;
64917;SDS011;52176;44.858;38.372;2023-02-11T00:18:43;41.28;;;20.75;;
64917;SDS011;52176;44.858;38.372;2023-02-11T00:21:09;41.38;;;21.25;;
64917;SDS011;52176;44.858;38.372;2023-02-11T00:23:43;40.47;;;19.20;;
64917;SDS011;52176;44.858;38.372;2023-02-11T00:26:13;43.03;;;18.20;;
64917;SDS011;52176;44.858;38.372;2023-02-11T00:28:48;40.60;;;19.67;;
64917;SDS011;52176;44.858;38.372;2023-02-11T00:31:15;31.23;;;17.27;;
64917;SDS011;52176;44.858;38.372;2023-02-11T00:33:42;38.70;;;18.70;;
64917;SDS011;52176;44.858;38.372;2023-02-11T00:36:11;41.40;;;19.98;;
64917;SDS011;52176;44.858;38.372;2023-02-11T00:38:39;42.45;;;20.60;;
64917;SDS011;52176;44.858;38.372;2023-02-11T00:41:08;41.40;;;18.17;;
64917;SDS011;52176;44.858;38.372;2023-02-11T00:44:07;45.38;;;19.55;;
64917;SDS011;52176;44.858;38.372;2023-02-11T00:46:33;40.70;;;20.77;;
64917;SDS011;52176;44.858;38.372;2023-02-11T00:49:00;50.33;;;20.75;;
64917;SDS011;52176;44.858;38.372;2023-02-11T00:51:26;55.53;;;23.85;;
64917;SDS011;52176;44.858;38.372;2023-02-11T00:53:53;51.72;;;20.40;;
64917;SDS011;52176;44.858;38.372;2023-02-11T00:56:19;56.05;;;23.60;;
64917;SDS011;52176;44.858;38.372;2023-02-11T00:58:46;46.75;;;21.27;;
64917;SDS011;52176;44.858;38.372;2023-02-11T01:01:12;48.70;;;22.05;;
64917;SDS011;52176;44.858;38.372;2023-02-11T01:03:38;45.33;;;20.70;;
64917;SDS011;52176;44.858;38.372;2023-02-11T01:06:06;39.40;;;20.27;;
64917;SDS011;52176;44.858;38.372;2023-02-11T01:08:36;52.58;;;23.10;;
64917;SDS011;52176;44.858;38.372;2023-02-11T01:11:04;58.28;;;23.58;;
64917;SDS011;52176;44.858;38.372;2023-02-11T01:13:34;56.05;;;23.20;;
64917;SDS011;52176;44.858;38.372;2023-02-11T01:16:01;43.03;;;19.63;;
64917;SDS011;52176;44.858;38.372;2023-02-11T01:18:28;52.40;;;23.38;;
64917;SDS011;52176;44.858;38.372;2023-02-11T01:20:54;46.17;;;19.83;;
64917;SDS011;52176;44.858;38.372;2023-02-11T01:23:21;47.05;;;22.45;;
64917;SDS011;52176;44.858;38.372;2023-02-11T01:25:48;52.17;;;20.92;;
64917;SDS011;52176;44.858;38.372;2023-02-11T01:28:17;46.63;;;21.98;;
64917;SDS011;52176;44.858;38.372;2023-02-11T01:30:46;42.60;;;21.00;;
64917;SDS011;52176;44.858;38.372;2023-02-11T01:33:12;51.78;;;22.27;;
64917;SDS011;52176;44.858;38.372;2023-02-11T01:35:38;54.97;;;21.23;;
64917;SDS011;52176;44.858;38.372;2023-02-11T01:38:05;47.72;;;21.27;;
64917;SDS011;52176;44.858;38.372;2023-02-11T01:40:33;48.65;;;23.38;;
64917;SDS011;52176;44.858;38.372;2023-02-11T01:43:00;49.60;;;23.15;;
64917;SDS011;52176;44.858;38.372;2023-02-11T01:45:51;45.70;;;22.13;;
64917;SDS011;52176;44.858;38.372;2023-02-11T01:48:24;55.05;;;22.20;;
64917;SDS011;52176;44.858;38.372;2023-02-11T01:50:55;50.40;;;21.85;;
64917;SDS011;52176;44.858;38.372;2023-02-11T01:53:25;58.38;;;22.73;;
64917;SDS011;52176;44.858;38.372;2023-02-11T01:56:12;48.35;;;21.17;;
64917;SDS011;52176;44.858;38.372;2023-02-11T01:58:58;47.05;;;20.98;;
64917;SDS011;52176;44.858;38.372;2023-02-11T02:01:29;45.85;;;21.38;;
64917;SDS011;52176;44.858;38.372;2023-02-11T02:03:58;49.75;;;22.00;;
64917;SDS011;52176;44.858;38.372;2023-02-11T02:06:39;52.33;;;21.27;;
64917;SDS011;52176;44.858;38.372;2023-02-11T02:09:15;45.55;;;20.95;;
64917;SDS011;52176;44.858;38.372;2023-02-11T02:11:49;57.88;;;20.70;;
64917;SDS011;52176;44.858;38.372;2023-02-11T02:14:15;59.40;;;23.77;;
64917;SDS011;52176;44.858;38.372;2023-02-11T02:16:42;53.15;;;24.10;;
64917;SDS011;52176;44.858;38.372;2023-02-11T02:32:45;44.08;;;19.95;;
64917;SDS011;52176;44.858;38.372;2023-02-11T02:35:33;41.65;;;21.00;;
64917;SDS011;52176;44.858;38.372;2023-02-11T02:38:06;43.03;;;21.30;;
64917;SDS011;52176;44.858;38.372;2023-02-11T02:40:34;46.60;;;20.67;;
64917;SDS011;52176;44.858;38.372;2023-02-11T02:43:04;53.42;;;23.48;;
64917;SDS011;52176;44.858;38.372;2023-02-11T02:45:33;55.10;;;23.05;;
64917;SDS011;52176;44.858;38.372;2023-02-11T02:47:59;50.92;;;22.85;;
64917;SDS011;52176;44.858;38.372;2023-02-11T02:50:27;51.40;;;21.92;;
64917;SDS011;52176;44.858;38.372;2023-02-11T03:01:32;52.20;;;22.40;;
64917;SDS011;52176;44.858;38.372;2023-02-11T03:04:05;58.53;;;24.33;;
64917;SDS011;52176;44.858;38.372;2023-02-11T03:09:52;53.75;;;22.35;;
64917;SDS011;52176;44.858;38.372;2023-02-11T03:12:27;41.80;;;20.50;;
64917;SDS011;52176;44.858;38.372;2023-02-11T03:14:56;49.97;;;22.00;;
64917;SDS011;52176;44.858;38.372;2023-02-11T03:17:24;61.08;;;23.80;;
64917;SDS011;52176;44.858;38.372;2023-02-11T03:19:51;52.67;;;24.10;;
64917;SDS011;52176;44.858;38.372;2023-02-11T03:22:24;52.33;;;24.88;;
64917;SDS011;52176;44.858;38.372;2023-02-11T03:24:54;47.75;;;19.63;;
64917;SDS011;52176;44.858;38.372;2023-02-11T03:27:25;48.50;;;21.48;;
64917;SDS011;52176;44.858;38.372;2023-02-11T03:30:10;47.03;;;21.13;;
64917;SDS011;52176;44.858;38.372;2023-02-11T03:32:42;46.28;;;22.20;;
64917;SDS011;52176;44.858;38.372;2023-02-11T03:38:19;54.47;;;21.65;;
64917;SDS011;52176;44.858;38.372;2023-02-11T03:40:47;53.97;;;23.08;;
64917;SDS011;52176;44.858;38.372;2023-02-11T03:43:24;46.17;;;21.42;;
64917;SDS011;52176;44.858;38.372;2023-02-11T03:45:54;46.90;;;21.48;;
64917;SDS011;52176;44.858;38.372;2023-02-11T03:48:23;46.25;;;21.77;;
64917;SDS011;52176;44.858;38.372;2023-02-11T03:50:52;46.13;;;21.10;;
64917;SDS011;52176;44.858;38.372;2023-02-11T03:53:21;53.15;;;24.10;;
64917;SDS011;52176;44.858;38.372;2023-02-11T03:56:20;43.92;;;20.95;;
64917;SDS011;52176;44.858;38.372;2023-02-11T03:58:49;50.55;;;21.55;;
64917;SDS011;52176;44.858;38.372;2023-02-11T04:01:15;49.90;;;22.30;;
64917;SDS011;52176;44.858;38.372;2023-02-11T04:03:41;52.85;;;20.63;;
64917;SDS011;52176;44.858;38.372;2023-02-11T04:06:07;69.78;;;25.30;;
64917;SDS011;52176;44.858;38.372;2023-02-11T04:08:33;49.30;;;22.40;;
64917;SDS011;52176;44.858;38.372;2023-02-11T04:10:59;46.65;;;22.55;;
64917;SDS011;52176;44.858;38.372;2023-02-11T04:13:25;62.83;;;24.55;;
64917;SDS011;52176;44.858;38.372;2023-02-11T04:15:51;46.33;;;23.95;;
64917;SDS011;52176;44.858;38.372;2023-02-11T04:18:17;57.03;;;24.25;;
64917;SDS011;52176;44.858;38.372;2023-02-11T04:20:43;52.30;;;23.30;;
64917;SDS011;52176;44.858;38.372;2023-02-11T04:23:09;58.33;;;23.33;;
64917;SDS011;52176;44.858;38.372;2023-02-11T04:25:35;46.85;;;20.88;;
64917;SDS011;52176;44.858;38.372;2023-02-11T04:28:01;55.75;;;23.73;;
64917;SDS011;52176;44.858;38.372;2023-02-11T04:30:27;49.40;;;24.17;;
64917;SDS011;52176;44.858;38.372;2023-02-11T04:32:53;55.00;;;25.55;;
64917;SDS011;52176;44.858;38.372;2023-02-11T04:35:19;52.72;;;23.67;;
64917;SDS011;52176;44.858;38.372;2023-02-11T04:37:45;66.18;;;26.63;;
64917;SDS011;52176;44.858;38.372;2023-02-11T04:40:11;68.20;;;26.05;;
64917;SDS011;52176;44.858;38.372;2023-02-11T04:42:37;55.67;;;24.90;;
64917;SDS011;52176;44.858;38.372;2023-02-11T04:45:03;61.50;;;26.17;;
64917;SDS011;52176;44.858;38.372;2023-02-11T04:47:31;63.38;;;26.20;;
64917;SDS011;52176;44.858;38.372;2023-02-11T04:49:57;45.95;;;23.70;;
64917;SDS011;52176;44.858;38.372;2023-02-11T04:52:23;66.88;;;25.95;;
64917;SDS011;52176;44.858;38.372;2023-02-11T04:54:49;60.28;;;25.23;;
64917;SDS011;52176;44.858;38.372;2023-02-11T04:57:15;55.63;;;25.13;;
64917;SDS011;52176;44.858;38.372;2023-02-11T04:59:41;55.47;;;25.73;;
64917;SDS011;52176;44.858;38.372;2023-02-11T05:02:07;54.72;;;24.63;;
64917;SDS011;52176;44.858;38.372;2023-02-11T05:04:33;55.70;;;24.88;;
64917;SDS011;52176;44.858;38.372;2023-02-11T05:06:59;53.05;;;23.67;;
64917;SDS011;52176;44.858;38.372;2023-02-11T05:09:57;50.80;;;23.20;;
64917;SDS011;52176;44.858;38.372;2023-02-11T05:12:23;47.25;;;21.55;;
64917;SDS011;52176;44.858;38.372;2023-02-11T05:15:22;46.03;;;21.70;;
64917;SDS011;52176;44.858;38.372;2023-02-11T05:17:48;56.45;;;21.40;;
64917;SDS011;52176;44.858;38.372;2023-02-11T05:20:14;44.90;;;20.65;;
64917;SDS011;52176;44.858;38.372;2023-02-11T05:22:40;40.45;;;19.83;;
64917;SDS011;52176;44.858;38.372;2023-02-11T05:25:06;52.05;;;21.95;;
64917;SDS011;52176;44.858;38.372;2023-02-11T05:28:05;42.30;;;19.65;;
64917;SDS011;52176;44.858;38.372;2023-02-11T05:30:31;52.30;;;23.02;;
64917;SDS011;52176;44.858;38.372;2023-02-11T05:32:58;58.17;;;24.42;;
64917;SDS011;52176;44.858;38.372;2023-02-11T05:35:24;50.72;;;24.08;;
64917;SDS011;52176;44.858;38.372;2023-02-11T05:37:50;55.80;;;25.13;;
64917;SDS011;52176;44.858;38.372;2023-02-11T05:40:16;51.08;;;21.63;;
64917;SDS011;52176;44.858;38.372;2023-02-11T05:42:42;51.00;;;22.80;;
64917;SDS011;52176;44.858;38.372;2023-02-11T05:45:08;59.10;;;23.60;;
64917;SDS011;52176;44.858;38.372;2023-02-11T05:47:34;58.10;;;24.70;;
64917;SDS011;52176;44.858;38.372;2023-02-11T05:50:00;54.97;;;21.30;;
64917;SDS011;52176;44.858;38.372;2023-02-11T05:52:26;52.33;;;22.83;;
64917;SDS011;52176;44.858;38.372;2023-02-11T05:54:52;53.13;;;21.63;;
64917;SDS011;52176;44.858;38.372;2023-02-11T05:57:18;47.90;;;22.17;;
64917;SDS011;52176;44.858;38.372;2023-02-11T05:59:44;55.47;;;22.92;;
64917;SDS011;52176;44.858;38.372;2023-02-11T06:02:10;43.67;;;20.80;;
64917;SDS011;52176;44.858;38.372;2023-02-11T06:04:36;44.42;;;21.95;;
64917;SDS011;52176;44.858;38.372;2023-02-11T06:07:02;47.08;;;22.50;;
64917;SDS011;52176;44.858;38.372;2023-02-11T06:09:29;45.63;;;21.70;;
64917;SDS011;52176;44.858;38.372;2023-02-11T06:11:55;40.92;;;21.40;;
64917;SDS011;52176;44.858;38.372;2023-02-11T06:14:21;58.10;;;22.13;;
64917;SDS011;52176;44.858;38.372;2023-02-11T06:16:47;57.10;;;22.30;;
64917;SDS011;52176;44.858;38.372;2023-02-11T06:19:13;58.88;;;22.00;;
64917;SDS011;52176;44.858;38.372;2023-02-11T06:21:39;46.65;;;23.17;;
64917;SDS011;52176;44.858;38.372;2023-02-11T06:24:05;51.55;;;21.58;;
64917;SDS011;52176;44.858;38.372;2023-02-11T06:26:31;52.33;;;22.10;;
64917;SDS011;52176;44.858;38.372;2023-02-11T06:29:00;44.38;;;20.70;;
64917;SDS011;52176;44.858;38.372;2023-02-11T06:31:26;53.55;;;21.90;;
64917;SDS011;52176;44.858;38.372;2023-02-11T06:33:53;54.83;;;20.40;;
64917;SDS011;52176;44.858;38.372;2023-02-11T06:36:23;51.00;;;21.50;;
64917;SDS011;52176;44.858;38.372;2023-02-11T06:38:50;53.63;;;22.05;;
64917;SDS011;52176;44.858;38.372;2023-02-11T06:41:17;53.97;;;22.42;;
64917;SDS011;52176;44.858;38.372;2023-02-11T06:43:46;51.53;;;22.13;;
64917;SDS011;52176;44.858;38.372;2023-02-11T06:46:13;41.00;;;17.88;;
64917;SDS011;52176;44.858;38.372;2023-02-11T06:48:40;55.50;;;19.63;;
64917;SDS011;52176;44.858;38.372;2023-02-11T06:51:07;60.75;;;21.33;;
64917;SDS011;52176;44.858;38.372;2023-02-11T06:53:35;44.22;;;19.30;;
64917;SDS011;52176;44.858;38.372;2023-02-11T06:56:06;46.78;;;21.73;;
64917;SDS011;52176;44.858;38.372;2023-02-11T06:58:34;55.90;;;22.70;;
64917;SDS011;52176;44.858;38.372;2023-02-11T07:01:08;52.53;;;22.10;;
64917;SDS011;52176;44.858;38.372;2023-02-11T07:03:35;55.58;;;22.70;;
64917;SDS011;52176;44.858;38.372;2023-02-11T07:06:04;53.50;;;23.05;;
64917;SDS011;52176;44.858;38.372;2023-02-11T07:09:04;44.90;;;20.02;;
64917;SDS011;52176;44.858;38.372;2023-02-11T07:11:31;56.28;;;22.42;;
64917;SDS011;52176;44.858;38.372;2023-02-11T07:14:01;52.33;;;21.25;;
64917;SDS011;52176;44.858;38.372;2023-02-11T07:16:29;69.95;;;23.92;;
64917;SDS011;52176;44.858;38.372;2023-02-11T07:18:56;53.25;;;21.17;;
64917;SDS011;52176;44.858;38.372;2023-02-11T07:21:22;48.88;;;22.40;;
64917;SDS011;52176;44.858;38.372;2023-02-11T07:23:48;56.38;;;23.60;;
64917;SDS011;52176;44.858;38.372;2023-02-11T07:26:16;54.70;;;23.80;;
64917;SDS011;52176;44.858;38.372;2023-02-11T07:28:44;45.78;;;20.75;;
64917;SDS011;52176;44.858;38.372;2023-02-11T07:31:14;51.83;;;21.05;;
64917;SDS011;52176;44.858;38.372;2023-02-11T07:33:42;46.95;;;20.90;;
64917;SDS011;52176;44.858;38.372;2023-02-11T07:36:10;49.22;;;19.75;;
64917;SDS011;52176;44.858;38.372;2023-02-11T07:38:37;48.65;;;21.13;;
64917;SDS011;52176;44.858;38.372;2023-02-11T07:41:04;44.92;;;21.10;;
64917;SDS011;52176;44.858;38.372;2023-02-11T07:44:03;48.85;;;21.33;;
64917;SDS011;52176;44.858;38.372;2023-02-11T07:46:30;43.55;;;20.48;;
64917;SDS011;52176;44.858;38.372;2023-02-11T07:48:57;44.75;;;21.42;;
64917;SDS011;52176;44.858;38.372;2023-02-11T07:51:24;56.35;;;23.02;;
64917;SDS011;52176;44.858;38.372;2023-02-11T07:53:52;47.08;;;21.80;;
64917;SDS011;52176;44.858;38.372;2023-02-11T07:56:19;45.92;;;19.40;;
64917;SDS011;52176;44.858;38.372;2023-02-11T07:58:46;45.20;;;21.17;;
64917;SDS011;52176;44.858;38.372;2023-02-11T08:01:14;59.00;;;22.58;;
64917;SDS011;52176;44.858;38.372;2023-02-11T08:03:43;48.75;;;20.52;;
64917;SDS011;52176;44.858;38.372;2023-02-11T08:06:14;47.40;;;21.38;;
64917;SDS011;52176;44.858;38.372;2023-02-11T08:08:42;44.47;;;20.38;;
64917;SDS011;52176;44.858;38.372;2023-02-11T08:11:13;50.50;;;21.40;;
64917;SDS011;52176;44.858;38.372;2023-02-11T08:13:43;44.97;;;21.83;;
64917;SDS011;52176;44.858;38.372;2023-02-11T08:16:17;45.78;;;19.83;;
64917;SDS011;52176;44.858;38.372;2023-02-11T08:18:49;49.67;;;20.95;;
64917;SDS011;52176;44.858;38.372;2023-02-11T08:21:16;46.97;;;21.27;;
64917;SDS011;52176;44.858;38.372;2023-02-11T08:23:43;47.17;;;20.63;;
64917;SDS011;52176;44.858;38.372;2023-02-11T08:26:11;42.13;;;18.48;;
64917;SDS011;52176;44.858;38.372;2023-02-11T08:28:39;47.58;;;21.30;;
64917;SDS011;52176;44.858;38.372;2023-02-11T08:31:08;41.75;;;18.88;;
64917;SDS011;52176;44.858;38.372;2023-02-11T08:33:40;54.27;;;20.37;;
64917;SDS011;52176;44.858;38.372;2023-02-11T08:36:19;46.90;;;18.83;;
64917;SDS011;52176;44.858;38.372;2023-02-11T08:38:47;38.08;;;18.85;;
64917;SDS011;52176;44.858;38.372;2023-02-11T08:41:14;38.53;;;17.23;;
64917;SDS011;52176;44.858;38.372;2023-02-11T08:43:40;38.80;;;16.08;;
64917;SDS011;52176;44.858;38.372;2023-02-11T08:46:09;30.98;;;15.60;;
64917;SDS011;52176;44.858;38.372;2023-02-11T08:48:38;31.05;;;14.25;;
64917;SDS011;52176;44.858;38.372;2023-02-11T08:51:06;41.65;;;16.25;;
64917;SDS011;52176;44.858;38.372;2023-02-11T08:53:33;31.83;;;15.48;;
64917;SDS011;52176;44.858;38.372;2023-02-11T08:55:59;32.42;;;14.75;;
64917;SDS011;52176;44.858;38.372;2023-02-11T08:58:25;37.03;;;15.43;;
64917;SDS011;52176;44.858;38.372;2023-02-11T09:00:51;34.33;;;15.63;;
64917;SDS011;52176;44.858;38.372;2023-02-11T09:03:17;32.05;;;15.45;;
64917;SDS011;52176;44.858;38.372;2023-02-11T09:05:44;32.92;;;15.93;;
64917;SDS011;52176;44.858;38.372;2023-02-11T09:08:12;34.70;;;15.20;;
64917;SDS011;52176;44.858;38.372;2023-02-11T09:10:38;31.25;;;15.02;;
64917;SDS011;52176;44.858;38.372;2023-02-11T09:13:05;31.83;;;15.15;;
64917;SDS011;52176;44.858;38.372;2023-02-11T09:15:31;34.35;;;14.38;;
64917;SDS011;52176;44.858;38.372;2023-02-11T09:18:30;36.45;;;15.95;;
64917;SDS011;52176;44.858;38.372;2023-02-11T09:21:03;34.28;;;15.60;;
64917;SDS011;52176;44.858;38.372;2023-02-11T09:23:31;29.20;;;13.77;;
64917;SDS011;52176;44.858;38.372;2023-02-11T09:26:05;41.58;;;15.15;;
64917;SDS011;52176;44.858;38.372;2023-02-11T09:30:58;31.65;;;13.70;;
64917;SDS011;52176;44.858;38.372;2023-02-11T09:33:24;28.10;;;13.90;;
64917;SDS011;52176;44.858;38.372;2023-02-11T09:35:50;39.28;;;14.63;;
64917;SDS011;52176;44.858;38.372;2023-02-11T09:38:16;35.10;;;15.57;;
64917;SDS011;52176;44.858;38.372;2023-02-11T10:08:44;32.42;;;15.98;;
64917;SDS011;52176;44.858;38.372;2023-02-11T10:11:29;39.72;;;16.75;;
64917;SDS011;52176;44.858;38.372;2023-02-11T10:16:58;37.35;;;16.10;;
64917;SDS011;52176;44.858;38.372;2023-02-11T10:19:34;35.28;;;16.67;;
64917;SDS011;52176;44.858;38.372;2023-02-11T10:22:20;32.60;;;13.90;;
64917;SDS011;52176;44.858;38.372;2023-02-11T10:24:53;34.00;;;15.20;;
64917;SDS011;52176;44.858;38.372;2023-02-11T10:27:30;35.45;;;15.02;;
64917;SDS011;52176;44.858;38.372;2023-02-11T10:30:03;29.25;;;14.43;;
64917;SDS011;52176;44.858;38.372;2023-02-11T10:35:13;36.17;;;15.02;;
64917;SDS011;52176;44.858;38.372;2023-02-11T10:37:42;27.90;;;14.35;;
64917;SDS011;52176;44.858;38.372;2023-02-11T10:40:13;27.55;;;13.23;;
64917;SDS011;52176;44.858;38.372;2023-02-11T10:42:48;33.00;;;14.35;;
64917;SDS011;52176;44.858;38.372;2023-02-11T10:53:35;29.83;;;13.75;;
64917;SDS011;52176;44.858;38.372;2023-02-11T10:56:02;27.20;;;13.75;;
64917;SDS011;52176;44.858;38.372;2023-02-11T11:01:21;31.25;;;16.17;;
64917;SDS011;52176;44.858;38.372;2023-02-11T11:03:49;27.63;;;13.75;;
64917;SDS011;52176;44.858;38.372;2023-02-11T11:06:16;25.05;;;12.23;;
64917;SDS011;52176;44.858;38.372;2023-02-11T11:08:56;24.70;;;11.52;;
64917;SDS011;52176;44.858;38.372;2023-02-11T11:11:23;23.08;;;12.73;;
64917;SDS011;52176;44.858;38.372;2023-02-11T11:14:23;30.05;;;14.73;;
64917;SDS011;52176;44.858;38.372;2023-02-11T11:16:53;31.27;;;15.00;;
64917;SDS011;52176;44.858;38.372;2023-02-11T11:19:21;32.85;;;15.40;;
64917;SDS011;52176;44.858;38.372;2023-02-11T11:21:52;30.48;;;14.15;;
64917;SDS011;52176;44.858;38.372;2023-02-11T11:26:57;31.13;;;15.52;;
64917;SDS011;52176;44.858;38.372;2023-02-11T11:29:34;37.67;;;16.13;;
64917;SDS011;52176;44.858;38.372;2023-02-11T11:34:51;36.33;;;13.85;;
64917;SDS011;52176;44.858;38.372;2023-02-11T11:37:21;35.70;;;17.17;;
64917;SDS011;52176;44.858;38.372;2023-02-11T11:42:36;52.63;;;25.33;;
64917;SDS011;52176;44.858;38.372;2023-02-11T11:50:52;28.05;;;12.93;;
64917;SDS011;52176;44.858;38.372;2023-02-11T11:55:59;22.65;;;11.65;;
64917;SDS011;52176;44.858;38.372;2023-02-11T11:58:31;18.38;;;9.38;;
64917;SDS011;52176;44.858;38.372;2023-02-11T12:06:06;23.40;;;10.90;;
64917;SDS011;52176;44.858;38.372;2023-02-11T12:14:26;22.23;;;10.38;;
64917;SDS011;52176;44.858;38.372;2023-02-11T12:28:24;26.05;;;12.60;;
64917;SDS011;52176;44.858;38.372;2023-02-11T12:39:42;23.50;;;12.68;;
64917;SDS011;52176;44.858;38.372;2023-02-11T12:50:48;26.48;;;11.90;;
64917;SDS011;52176;44.858;38.372;2023-02-11T12:56:13;21.08;;;9.73;;
64917;SDS011;52176;44.858;38.372;2023-02-11T12:58:47;80.07;;;37.33;;
64917;SDS011;52176;44.858;38.372;2023-02-11T13:06:26;1705.70;;;713.72;;
64917;SDS011;52176;44.858;38.372;2023-02-11T13:08:59;1825.05;;;723.28;;
64917;SDS011;52176;44.858;38.372;2023-02-11T13:11:29;1416.65;;;599.22;;
64917;SDS011;52176;44.858;38.372;2023-02-11T13:16:35;1653.20;;;704.78;;
64917;SDS011;52176;44.858;38.372;2023-02-11T13:19:20;1995.70;;;804.58;;
64917;SDS011;52176;44.858;38.372;2023-02-11T13:22:04;1092.22;;;540.92;;
64917;SDS011;52176;44.858;38.372;2023-02-11T13:25:00;730.38;;;323.48;;
64917;SDS011;52176;44.858;38.372;2023-02-11T13:27:43;491.92;;;201.75;;
64917;SDS011;52176;44.858;38.372;2023-02-11T13:30:28;283.02;;;101.28;;
64917;SDS011;52176;44.858;38.372;2023-02-11T13:33:01;140.73;;;49.87;;
64917;SDS011;52176;44.858;38.372;2023-02-11T13:35:33;20.35;;;8.95;;
64917;SDS011;52176;44.858;38.372;2023-02-11T13:38:02;18.63;;;8.95;;
64917;SDS011;52176;44.858;38.372;2023-02-11T13:40:35;17.60;;;9.40;;
64917;SDS011;52176;44.858;38.372;2023-02-11T13:43:03;17.48;;;9.50;;
64917;SDS011;52176;44.858;38.372;2023-02-11T13:48:05;18.25;;;8.90;;
64917;SDS011;52176;44.858;38.372;2023-02-11T13:50:46;22.27;;;9.88;;
64917;SDS011;52176;44.858;38.372;2023-02-11T13:53:14;21.63;;;10.50;;
64917;SDS011;52176;44.858;38.372;2023-02-11T13:55:42;20.88;;;9.70;;
64917;SDS011;52176;44.858;38.372;2023-02-11T14:09:00;21.05;;;10.10;;
64917;SDS011;52176;44.858;38.372;2023-02-11T14:14:18;27.10;;;10.27;;
64917;SDS011;52176;44.858;38.372;2023-02-11T14:19:36;20.40;;;9.20;;
64917;SDS011;52176;44.858;38.372;2023-02-11T14:32:34;44.20;;;17.42;;
64917;SDS011;52176;44.858;38.372;2023-02-11T14:43:19;29.42;;;13.13;;
64917;SDS011;52176;44.858;38.372;2023-02-11T14:45:49;39.00;;;13.32;;
64917;SDS011;52176;44.858;38.372;2023-02-11T14:48:18;34.83;;;13.30;;
64917;SDS011;52176;44.858;38.372;2023-02-11T14:50:48;35.00;;;13.68;;
64917;SDS011;52176;44.858;38.372;2023-02-11T14:53:18;30.45;;;13.73;;
64917;SDS011;52176;44.858;38.372;2023-02-11T14:55:49;49.67;;;20.50;;
64917;SDS011;52176;44.858;38.372;2023-02-11T14:58:18;40.20;;;17.52;;
64917;SDS011;52176;44.858;38.372;2023-02-11T15:01:02;37.83;;;15.70;;
64917;SDS011;52176;44.858;38.372;2023-02-11T15:03:34;50.60;;;19.38;;
64917;SDS011;52176;44.858;38.372;2023-02-11T15:08:58;79.57;;;30.10;;
64917;SDS011;52176;44.858;38.372;2023-02-11T15:11:59;88.68;;;35.03;;
64917;SDS011;52176;44.858;38.372;2023-02-11T15:14:26;63.38;;;24.20;;
64917;SDS011;52176;44.858;38.372;2023-02-11T15:17:13;52.20;;;23.17;;
64917;SDS011;52176;44.858;38.372;2023-02-11T15:19:44;54.65;;;22.58;;
64917;SDS011;52176;44.858;38.372;2023-02-11T15:22:15;49.85;;;20.75;;
64917;SDS011;52176;44.858;38.372;2023-02-11T15:24:44;48.15;;;19.92;;
64917;SDS011;52176;44.858;38.372;2023-02-11T15:27:21;51.17;;;20.75;;
64917;SDS011;52176;44.858;38.372;2023-02-11T15:29:50;75.30;;;24.60;;
64917;SDS011;52176;44.858;38.372;2023-02-11T15:34:48;72.78;;;24.90;;
64917;SDS011;52176;44.858;38.372;2023-02-11T15:37:19;55.33;;;23.13;;
64917;SDS011;52176;44.858;38.372;2023-02-11T15:40:20;58.60;;;23.48;;
64917;SDS011;52176;44.858;38.372;2023-02-11T15:43:20;78.07;;;28.58;;
64917;SDS011;52176;44.858;38.372;2023-02-11T15:45:57;74.18;;;28.13;;
64917;SDS011;52176;44.858;38.372;2023-02-11T15:48:31;77.57;;;30.67;;
64917;SDS011;52176;44.858;38.372;2023-02-11T15:51:02;85.47;;;29.38;;
64917;SDS011;52176;44.858;38.372;2023-02-11T15:53:37;75.47;;;27.67;;
64917;SDS011;52176;44.858;38.372;2023-02-11T15:56:14;70.57;;;27.85;;
64917;SDS011;52176;44.858;38.372;2023-02-11T15:58:52;64.03;;;27.15;;
64917;SDS011;52176;44.858;38.372;2023-02-11T16:01:33;66.80;;;28.65;;
64917;SDS011;52176;44.858;38.372;2023-02-11T16:04:01;67.57;;;29.65;;
64917;SDS011;52176;44.858;38.372;2023-02-11T16:06:36;103.13;;;35.60;;
64917;SDS011;52176;44.858;38.372;2023-02-11T16:16:51;90.47;;;36.40;;
64917;SDS011;52176;44.858;38.372;2023-02-11T16:19:24;92.88;;;35.45;;
64917;SDS011;52176;44.858;38.372;2023-02-11T16:21:52;92.22;;;36.20;;
64917;SDS011;52176;44.858;38.372;2023-02-11T16:24:23;82.00;;;32.85;;
64917;SDS011;52176;44.858;38.372;2023-02-11T16:29:23;68.35;;;29.88;;
64917;SDS011;52176;44.858;38.372;2023-02-11T16:32:02;65.05;;;24.45;;
64917;SDS011;52176;44.858;38.372;2023-02-11T16:34:32;46.15;;;20.38;;
64917;SDS011;52176;44.858;38.372;2023-02-11T16:36:58;54.53;;;23.52;;
64917;SDS011;52176;44.858;38.372;2023-02-11T16:39:28;57.80;;;23.92;;
64917;SDS011;52176;44.858;38.372;2023-02-11T16:41:54;56.47;;;24.70;;
64917;SDS011;52176;44.858;38.372;2023-02-11T16:44:21;69.80;;;27.75;;
64917;SDS011;52176;44.858;38.372;2023-02-11T16:46:48;54.60;;;23.27;;
64917;SDS011;52176;44.858;38.372;2023-02-11T16:49:16;51.45;;;21.02;;
64917;SDS011;52176;44.858;38.372;2023-02-11T16:51:48;45.30;;;20.35;;
64917;SDS011;52176;44.858;38.372;2023-02-11T16:54:17;43.15;;;20.50;;
64917;SDS011;52176;44.858;38.372;2023-02-11T16:56:43;53.92;;;23.20;;
64917;SDS011;52176;44.858;38.372;2023-02-11T16:59:10;51.83;;;22.08;;
64917;SDS011;52176;44.858;38.372;2023-02-11T17:01:36;46.75;;;22.80;;
64917;SDS011;52176;44.858;38.372;2023-02-11T17:04:04;60.78;;;23.95;;
64917;SDS011;52176;44.858;38.372;2023-02-11T17:06:34;51.30;;;23.67;;
64917;SDS011;52176;44.858;38.372;2023-02-11T17:09:00;53.03;;;22.75;;
64917;SDS011;52176;44.858;38.372;2023-02-11T17:11:26;44.47;;;23.63;;
64917;SDS011;52176;44.858;38.372;2023-02-11T17:13:52;49.92;;;21.23;;
64917;SDS011;52176;44.858;38.372;2023-02-11T17:16:18;46.75;;;19.88;;
64917;SDS011;52176;44.858;38.372;2023-02-11T17:18:47;47.13;;;20.45;;
64917;SDS011;52176;44.858;38.372;2023-02-11T17:21:14;47.92;;;20.42;;
64917;SDS011;52176;44.858;38.372;2023-02-11T17:23:40;47.97;;;22.08;;
64917;SDS011;52176;44.858;38.372;2023-02-11T17:26:06;65.97;;;22.00;;
64917;SDS011;52176;44.858;38.372;2023-02-11T17:28:32;57.25;;;22.00;;
64917;SDS011;52176;44.858;38.372;2023-02-11T17:30:59;51.47;;;21.15;;
64917;SDS011;52176;44.858;38.372;2023-02-11T17:33:25;48.03;;;20.08;;
64917;SDS011;52176;44.858;38.372;2023-02-11T17:35:51;45.17;;;21.80;;
64917;SDS011;52176;44.858;38.372;2023-02-11T17:38:17;28.65;;;13.85;;
64917;SDS011;52176;44.858;38.372;2023-02-11T17:43:41;33.55;;;14.57;;
64917;SDS011;52176;44.858;38.372;2023-02-11T17:46:07;23.88;;;11.82;;